Time;durP1;ratioP1;P1;durP2;ratioP2;P2;SDS_P1;SDS_P2;PMS_P1;PMS_P2;Temp;Humidity;BMP_temperature;BMP_pressure;BME280_temperature;BME280_humidity;BME280_pressure;Samples;Min_cycle;Max_cycle;Signal;HPM_P1;HPM_P2
2023/10/25 05:48:09;;;;;;;14.10;12.40;;;;;;;12.83;100.00;98832.83;101370;1293;600990;-57
2023/10/25 05:50:37;;;;;;;19.50;13.90;;;;;;;13.29;100.00;98824.06;103704;1271;61372;-58
2023/10/25 05:53:05;;;;;;;17.20;13.70;;;;;;;13.28;100.00;98824.80;103431;1271;60746;-58
2023/10/25 05:55:33;;;;;;;;;;;;;;;13.24;100.00;98819.37;104097;1271;70968;-58
2023/10/25 05:58:01;;;;;;;13.40;12.00;;;;;;;13.23;100.00;98815.59;104127;1257;69221;-58
2023/10/25 06:00:29;;;;;;;13.60;12.00;;;;;;;13.25;100.00;98803.02;104184;1263;72198;-59
2023/10/25 06:02:57;;;;;;;14.00;12.50;;;;;;;13.28;100.00;98796.85;103878;1278;62056;-59
2023/10/25 06:05:25;;;;;;;13.50;12.10;;;;;;;13.25;100.00;98790.64;104281;1262;59755;-59
2023/10/25 06:07:53;;;;;;;12.80;11.50;;;;;;;13.25;100.00;98787.84;104419;1261;72192;-59
2023/10/25 06:10:20;;;;;;;;;;;;;;;13.27;100.00;98784.41;104258;1262;69233;-60
2023/10/25 06:12:49;;;;;;;13.10;11.00;;;;;;;13.22;100.00;98775.36;104055;1260;72546;-58
2023/10/25 06:15:17;;;;;;;12.90;10.60;;;;;;;13.23;100.00;98774.27;104171;1261;61423;-60
2023/10/25 06:17:44;;;;;;;14.10;11.90;;;;;;;13.20;100.00;98767.41;104227;1262;60089;-59
2023/10/25 06:20:19;;;;;;;13.50;10.60;;;;;;;13.16;100.00;98767.90;104157;1262;72249;-60
2023/10/25 06:22:46;;;;;;;12.50;10.80;;;;;;;13.22;100.00;98765.14;104413;1262;69679;-66
2023/10/25 06:25:14;;;;;;;;;;;;;;;13.22;100.00;98755.30;104232;1262;72400;-67
2023/10/25 06:27:42;;;;;;;11.60;10.30;;;;;;;13.20;100.00;98752.06;104114;1261;61517;-67
2023/10/25 06:30:10;;;;;;;11.60;10.50;;;;;;;13.16;100.00;98750.11;104329;1262;60106;-66
2023/10/25 06:32:39;;;;;;;13.80;10.80;;;;;;;13.19;100.00;98745.48;104178;1263;72861;-67
2023/10/25 06:35:08;;;;;;;12.50;10.90;;;;;;;13.27;100.00;98739.19;105216;1262;68163;-62
2023/10/25 06:37:36;;;;;;;12.60;10.80;;;;;;;13.30;100.00;98736.48;104665;1261;72733;-63
2023/10/25 06:40:05;;;;;;;12.30;11.00;;;;;;;13.33;100.00;98732.09;104664;1258;61445;-61
2023/10/25 06:42:33;;;;;;;16.40;10.50;;;;;;;13.34;100.00;98727.10;105200;1254;59715;-61
2023/10/25 06:45:01;;;;;;;;;;;;;;;13.35;100.00;98721.77;107150;1257;75315;-61
2023/10/25 06:47:30;;;;;;;10.50;9.20;;;;;;;13.37;100.00;98720.90;104843;1262;68853;-61
2023/10/25 06:49:59;;;;;;;10.50;9.50;;;;;;;13.38;100.00;98720.45;104844;1272;72442;-61
2023/10/25 06:52:27;;;;;;;11.40;9.80;;;;;;;13.41;100.00;98720.59;105286;1260;61814;-61
2023/10/25 06:54:55;;;;;;;10.50;9.40;;;;;;;13.41;100.00;98726.39;104608;1253;60215;-61
2023/10/25 06:57:22;;;;;;;10.30;9.10;;;;;;;13.42;100.00;98723.67;104691;1256;72838;-61
2023/10/25 06:59:50;;;;;;;;;;;;;;;13.44;100.00;98724.09;105139;1254;69200;-61
2023/10/25 07:02:33;;;;;;;9.30;8.50;;;;;;;13.41;100.00;98721.50;104494;1260;72334;-61
2023/10/25 07:05:13;;;;;;;9.20;8.40;;;;;;;13.38;100.00;98714.33;104528;1261;61384;-61
2023/10/25 07:07:43;;;;;;;8.60;7.90;;;;;;;13.39;100.00;98714.95;104383;1260;59759;-62
2023/10/25 07:10:12;;;;;;;10.20;9.20;;;;;;;13.41;100.00;98714.47;104442;1260;73235;-61
2023/10/25 07:12:40;;;;;;;9.20;8.30;;;;;;;13.46;100.00;98713.07;104318;1272;69164;-62
2023/10/25 07:15:09;;;;;;;;;;;;;;;13.49;100.00;98712.51;104460;1260;72953;-61
2023/10/25 07:17:37;;;;;;;7.80;7.20;;;;;;;13.53;100.00;98705.55;104582;1258;61629;-62
2023/10/25 07:20:12;;;;;;;8.60;7.80;;;;;;;13.54;100.00;98708.64;104426;1265;59858;-62
2023/10/25 07:22:40;;;;;;;8.50;7.70;;;;;;;13.56;100.00;98709.05;104593;1267;73018;-61
2023/10/25 07:25:08;;;;;;;8.70;7.80;;;;;;;13.44;100.00;98683.59;104500;1258;70064;-62
2023/10/25 07:27:37;;;;;;;8.90;8.10;;;;;;;13.63;100.00;98700.24;106663;1254;73352;-61
2023/10/25 07:30:05;;;;;;;8.00;7.20;;;;;;;13.67;100.00;98708.43;108066;1253;61504;-61
2023/10/25 07:32:34;;;;;;;7.80;7.20;;;;;;;13.70;100.00;98702.78;104992;1256;59753;-61
2023/10/25 07:35:03;;;;;;;8.60;7.70;;;;;;;13.72;100.00;98708.95;104904;1259;73650;-60
2023/10/25 07:37:32;;;;;;;9.00;8.10;;;;;;;13.74;100.00;98716.93;104839;1262;68366;-61
2023/10/25 07:40:05;;;;;;;8.60;7.80;;;;;;;13.75;100.00;98710.13;104562;1257;75008;-60
2023/10/25 07:42:33;;;;;;;8.40;7.30;;;;;;;13.77;100.00;98701.38;104472;1258;61490;-61
2023/10/25 07:45:01;;;;;;;9.00;8.10;;;;;;;13.78;100.00;98697.95;104376;1264;59919;-60
2023/10/25 07:47:29;;;;;;;8.90;7.80;;;;;;;13.80;100.00;98688.64;104601;1255;73177;-60
2023/10/25 07:49:56;;;;;;;;;;;;;;;13.81;100.00;98684.92;104403;1259;68285;-60
2023/10/25 07:52:27;;;;;;;7.10;6.60;;;;;;;13.83;100.00;98687.27;104577;1260;71912;-60
2023/10/25 07:54:57;;;;;;;10.00;8.20;;;;;;;13.84;100.00;98692.60;104875;1254;61633;-61
2023/10/25 07:57:25;;;;;;;8.40;7.40;;;;;;;13.84;100.00;98688.37;105023;1253;59700;-62
2023/10/25 08:00:13;;;;;;;9.20;8.30;;;;;;;13.86;100.00;98690.91;104852;1254;72791;-61
2023/10/25 08:02:41;;;;;;;;;;;;;;;13.87;100.00;98683.43;104404;1256;69341;-62
2023/10/25 08:05:09;;;;;;;9.10;7.00;;;;;;;13.86;100.00;98681.73;104441;1258;73352;-61
2023/10/25 08:07:37;;;;;;;8.40;7.40;;;;;;;13.87;100.00;98687.27;104408;1264;61812;-62
2023/10/25 08:10:06;;;;;;;8.00;7.30;;;;;;;13.86;100.00;98682.80;104456;1254;59950;-61
2023/10/25 08:12:35;;;;;;;8.30;6.70;;;;;;;13.85;100.00;98672.45;104502;1258;73614;-61
2023/10/25 08:15:05;;;;;;;6.40;5.80;;;;;;;13.86;100.00;98665.36;104121;1260;69618;-63
2023/10/25 08:17:34;;;;;;;6.20;5.60;;;;;;;13.85;100.00;98660.98;104692;1257;72617;-62
2023/10/25 08:20:02;;;;;;;7.20;6.50;;;;;;;13.88;100.00;98659.41;104419;1260;62090;-61
2023/10/25 08:22:31;;;;;;;6.70;6.10;;;;;;;13.89;100.00;98654.43;104638;1257;59989;-61
2023/10/25 08:25:00;;;;;;;6.50;6.00;;;;;;;13.90;100.00;98653.12;104319;1263;72262;-62
2023/10/25 08:27:28;;;;;;;6.00;5.50;;;;;;;13.91;100.00;98647.73;104325;1253;69495;-62
2023/10/25 08:29:56;;;;;;;7.10;5.90;;;;;;;13.92;100.00;98639.91;104682;1260;73377;-62
2023/10/25 08:32:24;;;;;;;6.60;6.00;;;;;;;13.95;100.00;98638.13;104644;1254;61369;-60
2023/10/25 08:34:51;;;;;;;6.50;5.90;;;;;;;13.95;100.00;98633.87;104487;1254;60175;-60
2023/10/25 08:37:19;;;;;;;6.30;5.70;;;;;;;13.94;100.00;98630.80;104473;1254;72778;-58
2023/10/25 08:39:47;;;;;;;5.30;4.90;;;;;;;13.96;100.00;98623.78;104377;1258;70389;-60
2023/10/25 08:42:15;;;;;;;;;;;;;;;13.96;100.00;98623.41;104479;1270;72440;-60
2023/10/25 08:44:42;;;;;;;7.30;6.20;;;;;;;13.97;100.00;98621.70;105187;1252;61752;-60
2023/10/25 08:47:14;;;;;;;17.30;6.40;;;;;;;14.00;100.00;98615.17;106107;1257;59855;-60
2023/10/25 08:49:41;;;;;;;8.00;5.60;;;;;;;14.01;100.00;98614.35;105236;1260;71814;-61
2023/10/25 08:52:10;;;;;;;5.50;5.00;;;;;;;14.01;100.00;98614.90;104655;1270;70047;-60
2023/10/25 08:54:38;;;;;;;5.70;5.30;;;;;;;14.00;100.00;98610.77;105138;1254;72495;-61
2023/10/25 08:57:07;;;;;;;5.80;5.30;;;;;;;14.03;100.00;98607.23;105559;1254;60586;-61
2023/10/25 08:59:43;;;;;;;5.40;5.00;;;;;;;14.07;100.00;98606.59;104736;1257;59887;-62
2023/10/25 09:02:11;;;;;;;6.70;4.90;;;;;;;14.12;100.00;98601.06;104483;1257;73185;-63
2023/10/25 09:05:06;;;;;;;6.00;5.30;;;;;;;14.14;100.00;98598.64;104336;1258;68782;-62
2023/10/25 09:07:35;;;;;;;5.40;4.90;;;;;;;14.15;100.00;98590.96;105249;1259;72519;-62
2023/10/25 09:10:04;;;;;;;5.20;4.80;;;;;;;14.17;100.00;98588.75;104837;1257;61398;-62
2023/10/25 09:12:32;;;;;;;5.40;4.90;;;;;;;14.15;100.00;98583.56;104739;1257;59693;-62
2023/10/25 09:15:01;;;;;;;5.70;5.20;;;;;;;14.16;100.00;98582.96;104326;1274;71915;-61
2023/10/25 09:17:30;;;;;;;5.10;4.60;;;;;;;14.20;100.00;98579.37;104398;1257;69143;-62
2023/10/25 09:19:57;;;;;;;5.50;5.00;;;;;;;14.21;100.00;98571.50;104495;1257;73254;-61
2023/10/25 09:22:27;;;;;;;5.60;5.10;;;;;;;14.25;100.00;98563.14;104332;1256;61615;-61
2023/10/25 09:24:56;;;;;;;6.50;5.70;;;;;;;14.25;100.00;98555.91;104480;1254;59805;-62
2023/10/25 09:27:24;;;;;;;5.70;5.20;;;;;;;14.25;100.00;98549.23;104504;1254;72178;-61
2023/10/25 09:30:14;;;;;;;6.40;5.80;;;;;;;14.26;100.00;98540.70;104612;1254;68414;-61
2023/10/25 09:32:54;;;;;;;5.70;5.20;;;;;;;14.23;100.00;98534.00;108271;1254;72918;-62
2023/10/25 09:35:22;;;;;;;;;;;;;;;14.21;100.00;98529.52;108150;1254;62087;-63
2023/10/25 09:37:50;;;;;;;;;;;;;;;14.23;100.00;98528.70;108135;1252;59580;-63
2023/10/25 09:40:17;;;;;;;;;;;;;;;14.22;100.00;98521.36;105206;1260;73183;-61
2023/10/25 09:42:49;;;;;;;4.20;3.90;;;;;;;14.22;100.00;98515.02;104613;1253;70073;-62
2023/10/25 09:45:23;;;;;;;4.80;4.40;;;;;;;14.23;100.00;98514.79;104491;1257;72844;-63
2023/10/25 09:47:53;;;;;;;5.00;4.60;;;;;;;14.25;100.00;98512.00;104635;1255;61666;-62
2023/10/25 09:50:33;;;;;;;5.40;4.70;;;;;;;14.27;100.00;98508.33;104455;1254;60727;-61
2023/10/25 09:53:25;;;;;;;5.00;4.60;;;;;;;14.29;100.00;98506.24;104296;1257;73181;-60
2023/10/25 09:55:54;;;;;;;5.00;4.60;;;;;;;14.31;100.00;98501.54;104408;1259;69212;-60
2023/10/25 09:58:23;;;;;;;4.70;4.40;;;;;;;14.35;100.00;98497.29;104517;1257;73137;-61
2023/10/25 10:00:50;;;;;;;;;;;;;;;14.37;100.00;98497.83;104350;1260;61491;-61
2023/10/25 10:03:30;;;;;;;4.70;4.30;;;;;;;14.38;100.00;98490.90;104475;1266;60697;-61
2023/10/25 10:06:14;;;;;;;4.90;4.50;;;;;;;14.35;100.00;98485.48;104335;1269;74005;-61
2023/10/25 10:08:47;;;;;;;5.20;4.70;;;;;;;14.35;100.00;98478.77;104350;1259;69663;-62
2023/10/25 10:11:16;;;;;;;5.30;4.50;;;;;;;14.35;100.00;98475.27;105121;1253;73168;-62
2023/10/25 10:13:44;;;;;;;4.70;4.40;;;;;;;14.34;100.00;98472.86;104465;1260;61629;-62
2023/10/25 10:16:15;;;;;;;4.50;4.10;;;;;;;14.36;100.00;98466.89;104440;1258;60893;-62
2023/10/25 10:18:48;;;;;;;5.00;4.30;;;;;;;14.36;100.00;98462.37;104677;1254;73990;-62
2023/10/25 10:21:16;;;;;;;4.50;4.00;;;;;;;14.36;100.00;98457.09;104402;1270;70348;-62
2023/10/25 10:23:53;;;;;;;4.50;4.20;;;;;;;14.36;100.00;98451.20;104333;1271;71175;-62
2023/10/25 10:26:43;;;;;;;4.20;3.90;;;;;;;14.35;100.00;98442.67;104557;1257;61619;-61
2023/10/25 10:29:51;;;;;;;4.50;4.20;;;;;;;14.36;100.00;98444.67;104638;1254;60460;-63
2023/10/25 10:32:19;;;;;;;4.40;4.00;;;;;;;14.39;100.00;98443.61;104216;1263;75072;-60
2023/10/25 10:34:56;;;;;;;4.60;4.20;;;;;;;14.38;100.00;98436.77;104549;1258;69310;-61
2023/10/25 10:37:25;;;;;;;4.40;4.00;;;;;;;14.35;100.00;98436.34;104271;1275;73322;-62
2023/10/25 10:40:02;;;;;;;5.10;4.60;;;;;;;14.35;100.00;98430.52;104766;1254;61524;-62
2023/10/25 10:42:36;;;;;;;4.70;4.20;;;;;;;14.37;100.00;98419.39;104339;1265;60608;-61
2023/10/25 10:45:11;;;;;;;4.70;4.00;;;;;;;14.40;100.00;98408.79;107330;1253;74982;-61
2023/10/25 10:47:41;;;;;;;4.70;4.30;;;;;;;14.40;100.00;98405.28;108242;1253;69231;-60
2023/10/25 10:50:12;;;;;;;4.90;4.50;;;;;;;14.45;100.00;98401.20;108273;1251;72695;-60
2023/10/25 10:52:41;;;;;;;4.20;3.90;;;;;;;14.46;100.00;98396.67;107559;1252;61487;-61
2023/10/25 10:55:13;;;;;;;6.20;4.40;;;;;;;14.50;100.00;98390.73;108285;1251;60087;-60
2023/10/25 10:57:41;;;;;;;4.60;4.20;;;;;;;14.54;100.00;98380.73;108004;1253;75219;-60
2023/10/25 11:00:29;;;;;;;4.70;4.30;;;;;;;14.57;100.00;98374.88;105005;1252;69743;-60
2023/10/25 11:02:59;;;;;;;5.80;4.20;;;;;;;14.58;100.00;98368.81;104657;1254;72432;-61
2023/10/25 11:05:27;;;;;;;4.90;4.50;;;;;;;14.59;100.00;98365.92;104742;1257;61490;-61
2023/10/25 11:07:55;;;;;;;5.10;4.60;;;;;;;14.62;100.00;98363.20;104401;1254;60731;-61
2023/10/25 11:10:23;;;;;;;4.90;4.50;;;;;;;14.62;100.00;98360.77;104553;1257;73967;-61
2023/10/25 11:12:51;;;;;;;5.30;4.80;;;;;;;14.68;100.00;98357.98;104613;1253;69532;-60
2023/10/25 11:15:24;;;;;;;;;;;;;;;14.67;100.00;98356.98;104630;1264;71472;-61
2023/10/25 11:17:52;;;;;;;4.50;4.10;;;;;;;14.70;100.00;98355.15;104763;1257;61698;-62
2023/10/25 11:20:21;;;;;;;5.10;4.70;;;;;;;14.69;100.00;98349.79;104555;1258;60521;-60
2023/10/25 11:22:48;;;;;;;5.00;4.50;;;;;;;14.67;100.00;98345.21;104698;1263;73708;-61
2023/10/25 11:25:21;;;;;;;6.00;5.10;;;;;;;14.66;100.00;98340.84;105020;1254;69856;-61
2023/10/25 11:27:50;;;;;;;5.20;4.70;;;;;;;14.68;100.00;98336.95;104646;1265;72466;-62
2023/10/25 11:30:18;;;;;;;5.30;4.80;;;;;;;14.68;100.00;98332.77;104281;1257;61636;-61
2023/10/25 11:32:47;;;;;;;6.10;5.40;;;;;;;14.69;100.00;98324.92;104588;1256;60708;-61
2023/10/25 11:35:25;;;;;;;5.40;4.80;;;;;;;14.68;100.00;98320.53;106172;1252;73892;-61
2023/10/25 11:37:53;;;;;;;5.20;4.70;;;;;;;14.70;100.00;98316.33;107626;1254;69303;-63
2023/10/25 11:40:33;;;;;;;;;;;;;;;14.72;100.00;98313.77;104547;1255;71503;-61
2023/10/25 11:43:01;;;;;;;5.90;4.50;;;;;;;14.73;100.00;98310.41;104601;1254;62378;-61
2023/10/25 11:45:29;;;;;;;5.20;4.60;;;;;;;14.77;100.00;98304.84;104928;1254;60000;-62
2023/10/25 11:47:57;;;;;;;4.80;4.40;;;;;;;14.78;100.00;98298.06;104955;1254;73039;-61
2023/10/25 11:50:25;;;;;;;5.00;4.50;;;;;;;14.81;100.00;98298.16;104595;1255;69834;-60
2023/10/25 11:52:52;;;;;;;5.30;4.80;;;;;;;14.80;100.00;98295.79;105048;1261;72121;-62
2023/10/25 11:55:20;;;;;;;5.20;4.80;;;;;;;14.80;100.00;98296.83;104789;1253;61614;-61
2023/10/25 11:57:48;;;;;;;5.00;4.50;;;;;;;14.84;100.00;98295.87;104721;1253;60480;-61
2023/10/25 12:00:16;;;;;;;5.60;4.90;;;;;;;14.82;100.00;98291.57;104921;1257;76718;-60
2023/10/25 12:02:44;;;;;;;4.70;4.30;;;;;;;14.83;100.00;98292.77;104753;1256;69347;-62
2023/10/25 12:05:12;;;;;;;4.80;4.40;;;;;;;14.81;100.00;98282.83;104298;1259;72488;-63
2023/10/25 12:07:40;;;;;;;5.10;4.60;;;;;;;14.81;100.00;98279.13;104542;1255;62109;-62
2023/10/25 12:10:09;;;;;;;5.60;5.10;;;;;;;14.83;100.00;98278.48;104551;1253;60467;-62
2023/10/25 12:12:38;;;;;;;4.80;4.30;;;;;;;14.84;100.00;98270.98;104613;1254;74366;-61
2023/10/25 12:15:07;;;;;;;4.40;4.00;;;;;;;14.85;100.00;98266.48;104644;1254;69821;-61
2023/10/25 12:17:35;;;;;;;5.60;4.50;;;;;;;14.82;100.00;98260.55;104764;1258;73222;-61
2023/10/25 12:20:03;;;;;;;;;;;;;;;14.77;100.00;98255.64;104703;1268;60683;-61
2023/10/25 12:22:49;;;;;;;4.50;4.00;;;;;;;14.72;100.00;98254.58;104803;1253;60616;-63
2023/10/25 12:25:17;;;;;;;4.60;4.30;;;;;;;14.72;100.00;98251.66;104806;1256;73588;-62
2023/10/25 12:27:45;;;;;;;5.00;4.60;;;;;;;14.73;100.00;98246.95;104746;1262;70511;-59
2023/10/25 12:30:13;;;;;;;5.50;4.50;;;;;;;14.77;100.00;98241.98;104695;1253;72596;-61
2023/10/25 12:32:40;;;;;;;;;;;;;;;14.79;100.00;98241.91;104830;1257;61643;-60
2023/10/25 12:35:08;;;;;;;;;;;;;;;14.78;100.00;98238.03;104934;1257;60423;-61
2023/10/25 12:37:36;;;;;;;;;;;;;;;14.76;100.00;98234.70;104877;1258;74329;-61
2023/10/25 12:40:04;;;;;;;5.10;4.50;;;;;;;14.77;100.00;98229.65;104820;1253;69712;-60
2023/10/25 12:42:33;;;;;;;4.80;4.40;;;;;;;14.73;100.00;98227.36;105791;1253;71829;-60
2023/10/25 12:45:00;;;;;;;4.40;4.00;;;;;;;14.71;100.00;98220.02;104844;1254;61189;-60
2023/10/25 12:47:29;;;;;;;31.60;5.80;;;;;;;14.68;100.00;98218.10;108306;1253;58797;-60
2023/10/25 12:49:57;;;;;;;39.30;5.00;;;;;;;14.67;100.00;98216.40;106643;1252;73045;-60
2023/10/25 12:52:25;;;;;;;3.80;3.50;;;;;;;14.64;100.00;98209.83;104717;1257;70272;-60
2023/10/25 12:54:53;;;;;;;;;;;;;;;14.70;100.00;98209.48;105047;1269;71994;-60
2023/10/25 12:57:21;;;;;;;4.20;3.70;;;;;;;14.70;100.00;98205.79;104758;1254;62607;-61
2023/10/25 12:59:49;;;;;;;4.10;3.70;;;;;;;14.68;100.00;98203.14;105107;1253;60540;-59
2023/10/25 13:02:17;;;;;;;4.50;4.10;;;;;;;14.68;100.00;98202.03;104468;1257;72638;-60
2023/10/25 13:04:46;;;;;;;4.30;3.90;;;;;;;14.68;100.00;98202.92;104459;1253;68517;-61
2023/10/25 13:07:14;;;;;;;4.50;4.10;;;;;;;14.66;100.00;98196.77;104865;1254;72519;-61
2023/10/25 13:09:41;;;;;;;;;;;;;;;14.63;100.00;98193.48;104392;1263;61488;-60
2023/10/25 13:12:09;;;;;;;;;;;;;;;14.66;100.00;98193.38;104652;1259;60133;-60
2023/10/25 13:14:37;;;;;;;;;;;;;;;14.61;100.00;98186.97;104387;1253;74328;-63
2023/10/25 13:17:05;;;;;;;4.50;4.00;;;;;;;14.56;100.00;98186.25;104333;1275;69280;-62
2023/10/25 13:19:46;;;;;;;4.60;4.20;;;;;;;14.62;100.00;98184.77;104341;1254;71921;-60
2023/10/25 13:22:14;;;;;;;4.50;4.20;;;;;;;14.64;100.00;98186.21;104503;1254;62044;-59
2023/10/25 13:24:42;;;;;;;4.80;4.30;;;;;;;14.64;100.00;98181.65;104341;1257;60502;-60
2023/10/25 13:27:10;;;;;;;5.40;4.60;;;;;;;14.64;100.00;98180.88;104405;1265;73670;-59
2023/10/25 13:29:38;;;;;;;4.30;4.00;;;;;;;14.62;100.00;98172.91;104590;1256;69911;-60
2023/10/25 13:32:07;;;;;;;;;;;;;;;14.60;100.00;98170.41;105088;1254;72473;-60
2023/10/25 13:34:35;;;;;;;4.60;4.10;;;;;;;14.62;100.00;98175.79;106474;1254;61664;-60
2023/10/25 13:37:03;;;;;;;4.60;4.20;;;;;;;14.64;100.00;98175.58;104908;1255;60583;-59
2023/10/25 13:39:31;;;;;;;4.70;4.30;;;;;;;14.66;100.00;98170.88;106253;1254;72566;-60
2023/10/25 13:41:59;;;;;;;4.90;4.40;;;;;;;14.67;100.00;98162.64;106785;1255;70052;-60
2023/10/25 13:44:27;;;;;;;6.10;4.20;;;;;;;14.71;100.00;98166.92;104689;1254;73147;-60
2023/10/25 13:46:55;;;;;;;4.70;4.30;;;;;;;14.68;100.00;98162.72;104585;1257;62503;-60
2023/10/25 13:49:22;;;;;;;;;;;;;;;14.68;100.00;98154.99;104454;1263;60424;-60
2023/10/25 13:51:50;;;;;;;4.70;4.10;;;;;;;14.69;100.00;98147.35;104427;1259;73777;-60
2023/10/25 13:54:19;;;;;;;5.40;5.00;;;;;;;14.67;100.00;98141.98;104693;1253;70389;-60
2023/10/25 13:56:47;;;;;;;5.20;4.70;;;;;;;14.68;100.00;98139.11;104575;1253;72812;-62
2023/10/25 13:59:15;;;;;;;5.40;5.00;;;;;;;14.68;100.00;98135.77;104458;1261;62013;-60
2023/10/25 14:01:42;;;;;;;6.60;5.10;;;;;;;14.67;100.00;98133.33;104365;1257;60557;-61
2023/10/25 14:04:10;;;;;;;5.80;4.90;;;;;;;14.71;100.00;98128.95;104443;1262;73073;-61
2023/10/25 14:06:43;;;;;;;5.20;4.70;;;;;;;14.71;100.00;98122.25;104351;1253;68286;-60
2023/10/25 14:09:10;;;;;;;6.10;5.50;;;;;;;14.72;100.00;98121.12;104442;1258;73653;-61
2023/10/25 14:11:38;;;;;;;5.80;5.30;;;;;;;14.72;100.00;98120.05;104527;1255;61497;-61
2023/10/25 14:14:07;;;;;;;5.90;5.40;;;;;;;14.69;100.00;98115.88;104671;1255;59837;-60
2023/10/25 14:16:34;;;;;;;5.30;4.90;;;;;;;14.67;100.00;98120.52;104486;1265;72823;-63
2023/10/25 14:19:03;;;;;;;6.10;5.60;;;;;;;14.70;100.00;98109.15;104359;1256;68173;-61
2023/10/25 14:21:30;;;;;;;5.80;5.30;;;;;;;14.67;100.00;98104.60;104542;1256;72650;-63
2023/10/25 14:23:58;;;;;;;7.10;6.40;;;;;;;14.65;100.00;98100.72;104573;1270;62015;-60
2023/10/25 14:26:26;;;;;;;6.30;5.80;;;;;;;14.63;100.00;98100.20;104532;1262;60399;-60
2023/10/25 14:28:54;;;;;;;;;;;;;;;14.65;100.00;98101.98;104357;1257;76049;-60
2023/10/25 14:31:21;;;;;;;;;;;;;;;14.68;100.00;98097.33;104387;1257;69433;-60
2023/10/25 14:33:50;;;;;;;;;;;;;;;14.66;100.00;98098.95;104409;1265;72948;-60
2023/10/25 14:36:18;;;;;;;5.80;5.10;;;;;;;14.64;100.00;98094.30;104410;1257;61662;-60
2023/10/25 14:38:45;;;;;;;7.60;6.70;;;;;;;14.63;100.00;98090.13;104463;1254;60484;-60
2023/10/25 14:41:13;;;;;;;6.90;6.30;;;;;;;14.72;100.00;98086.42;104510;1254;73844;-61
2023/10/25 14:43:41;;;;;;;6.80;6.20;;;;;;;14.76;100.00;98080.77;104558;1252;69746;-60
2023/10/25 14:46:13;;;;;;;10.30;7.10;;;;;;;14.75;100.00;98076.59;104283;1259;73131;-60
2023/10/25 14:48:41;;;;;;;6.90;6.30;;;;;;;14.77;100.00;98071.30;108238;1253;62047;-61
2023/10/25 14:51:16;;;;;;;7.00;6.40;;;;;;;14.77;100.00;98065.16;107438;1253;59958;-61
2023/10/25 14:53:44;;;;;;;6.50;6.00;;;;;;;14.77;100.00;98061.11;104761;1255;74777;-61
2023/10/25 14:56:12;;;;;;;7.30;6.70;;;;;;;14.76;100.00;98059.20;105011;1256;69650;-64
2023/10/25 14:58:40;;;;;;;6.50;5.90;;;;;;;14.76;100.00;98060.07;104425;1253;73255;-61
2023/10/25 15:01:19;;;;;;;7.10;6.40;;;;;;;14.76;100.00;98060.95;104778;1255;61287;-60
2023/10/25 15:03:48;;;;;;;6.70;6.20;;;;;;;14.75;100.00;98057.04;104664;1255;60059;-60
2023/10/25 15:06:20;;;;;;;6.90;6.30;;;;;;;14.74;100.00;98055.14;104581;1253;73947;-61
2023/10/25 15:08:48;;;;;;;7.20;6.60;;;;;;;14.70;100.00;98059.63;104736;1265;69790;-60
2023/10/25 15:11:16;;;;;;;6.30;5.90;;;;;;;14.74;100.00;98056.72;104807;1258;73327;-64
2023/10/25 15:13:43;;;;;;;7.30;6.60;;;;;;;14.77;100.00;98060.41;104856;1256;61635;-61
2023/10/25 15:16:11;;;;;;;;;;;;;;;14.76;100.00;98064.15;104787;1254;60791;-61
2023/10/25 15:18:43;;;;;;;6.70;6.10;;;;;;;14.73;100.00;98063.38;104751;1252;73671;-62
2023/10/25 15:21:18;;;;;;;6.60;6.10;;;;;;;14.73;100.00;98056.12;104545;1257;70055;-61
2023/10/25 15:23:46;;;;;;;7.60;6.50;;;;;;;14.74;100.00;98051.85;104959;1253;72808;-61
2023/10/25 15:26:14;;;;;;;;;;;;;;;14.76;100.00;98054.86;104560;1254;60567;-62
2023/10/25 15:28:42;;;;;;;;;;;;;;;14.73;100.00;98048.00;104487;1253;60474;-61
2023/10/25 15:31:11;;;;;;;6.10;5.60;;;;;;;14.73;100.00;98047.81;104400;1255;72936;-62
2023/10/25 15:33:39;;;;;;;7.40;6.90;;;;;;;14.71;100.00;98046.42;104562;1270;69637;-61
2023/10/25 15:36:08;;;;;;;8.60;6.80;;;;;;;14.72;100.00;98046.37;104292;1252;71673;-62
2023/10/25 15:38:36;;;;;;;7.00;6.50;;;;;;;14.71;100.00;98044.48;104410;1256;60620;-61
2023/10/25 15:41:14;;;;;;;7.10;6.50;;;;;;;14.72;100.00;98043.51;104420;1257;60480;-61
2023/10/25 15:43:43;;;;;;;7.50;6.90;;;;;;;14.73;100.00;98046.65;107081;1253;74442;-61
2023/10/25 15:46:10;;;;;;;7.90;7.30;;;;;;;14.73;100.00;98049.09;104105;1261;69714;-61
2023/10/25 15:48:46;;;;;;;10.10;7.30;;;;;;;14.73;100.00;98046.63;104344;1254;72498;-61
2023/10/25 15:51:15;;;;;;;8.20;7.50;;;;;;;14.73;100.00;98040.93;104364;1268;61512;-61
2023/10/25 15:53:42;;;;;;;;;;;;;;;14.76;100.00;98036.52;104480;1256;60440;-62
2023/10/25 15:56:12;;;;;;;7.90;7.20;;;;;;;14.81;100.00;98036.09;104672;1253;74315;-62
2023/10/25 15:58:44;;;;;;;8.30;7.50;;;;;;;14.82;100.00;98032.27;104412;1272;70319;-62
2023/10/25 16:01:13;;;;;;;8.10;7.40;;;;;;;14.84;100.00;98031.26;104660;1264;71412;-63
2023/10/25 16:03:54;;;;;;;9.30;8.40;;;;;;;14.84;100.00;98029.45;104522;1271;61661;-61
2023/10/25 16:06:22;;;;;;;8.40;7.70;;;;;;;14.85;100.00;98029.54;104724;1256;60538;-62
2023/10/25 16:08:50;;;;;;;9.40;8.40;;;;;;;14.85;100.00;98025.71;104591;1257;73659;-62
2023/10/25 16:11:19;;;;;;;;;;;;;;;14.83;100.00;98020.94;105013;1253;70199;-61
2023/10/25 16:13:48;;;;;;;9.20;8.50;;;;;;;14.82;100.00;98020.64;104534;1257;73108;-59
2023/10/25 16:16:16;;;;;;;10.30;9.40;;;;;;;14.82;100.00;98021.89;104990;1254;60748;-59
2023/10/25 16:18:43;;;;;;;;;;;;;;;14.85;100.00;98021.44;105131;1255;59981;-60
2023/10/25 16:21:12;;;;;;;9.30;8.50;;;;;;;14.82;100.00;98020.31;104868;1262;73764;-59
2023/10/25 16:23:43;;;;;;;14.50;8.10;;;;;;;14.78;100.00;98017.58;104697;1258;68644;-60
2023/10/25 16:26:12;;;;;;;8.70;7.90;;;;;;;14.77;100.00;98016.94;104525;1260;72528;-60
2023/10/25 16:28:40;;;;;;;7.90;7.30;;;;;;;14.84;100.00;98016.91;104447;1255;62287;-60
2023/10/25 16:31:08;;;;;;;12.00;8.40;;;;;;;14.82;100.00;98013.80;104280;1260;60525;-61
2023/10/25 16:33:37;;;;;;;;;;;;;;;14.84;100.00;98010.80;104530;1268;75741;-61
2023/10/25 16:36:06;;;;;;;8.80;7.90;;;;;;;14.84;100.00;98008.31;104524;1254;72909;-64
2023/10/25 16:38:33;;;;;;;8.40;7.70;;;;;;;14.82;100.00;98012.57;104530;1253;73225;-60
2023/10/25 16:41:04;;;;;;;;;;;;;;;14.86;100.00;98009.86;104462;1253;61681;-61
2023/10/25 16:43:33;;;;;;;8.20;7.50;;;;;;;14.93;100.00;98004.28;104545;1257;60687;-61
2023/10/25 16:46:09;;;;;;;9.30;8.40;;;;;;;14.92;100.00;98001.48;104520;1267;73695;-61
2023/10/25 16:48:38;;;;;;;8.40;7.70;;;;;;;14.91;100.00;97995.67;105107;1251;68488;-64
2023/10/25 16:51:12;;;;;;;8.60;7.80;;;;;;;14.90;100.00;97993.48;108172;1252;72797;-59
2023/10/25 16:53:43;;;;;;;9.00;8.10;;;;;;;14.91;100.00;97990.79;105823;1253;63309;-59
2023/10/25 16:56:12;;;;;;;10.00;8.90;;;;;;;14.97;100.00;97990.96;105258;1256;60512;-60
2023/10/25 16:58:40;;;;;;;8.60;7.90;;;;;;;14.95;100.00;97990.53;105356;1251;74349;-59
2023/10/25 17:01:09;;;;;;;9.10;8.20;;;;;;;14.93;100.00;97991.64;105703;1252;69679;-60
2023/10/25 17:03:36;;;;;;;17.80;8.50;;;;;;;14.92;100.00;97987.36;104682;1265;72980;-59
2023/10/25 17:06:04;;;;;;;;;;;;;;;14.97;100.00;97983.70;104769;1256;61842;-59
2023/10/25 17:08:33;;;;;;;14.40;8.90;;;;;;;15.00;100.00;97980.61;104629;1253;60464;-61
2023/10/25 17:11:02;;;;;;;9.10;8.30;;;;;;;14.97;100.00;97980.04;104658;1257;73649;-59
2023/10/25 17:13:30;;;;;;;21.90;10.40;;;;;;;14.98;100.00;97977.80;104595;1257;69246;-59
2023/10/25 17:16:01;;;;;;;9.70;8.90;;;;;;;14.98;100.00;97978.89;104593;1252;72879;-62
2023/10/25 17:18:34;;;;;;;10.50;9.40;;;;;;;14.97;100.00;97972.05;104632;1261;61065;-61
2023/10/25 17:21:08;;;;;;;9.70;8.70;;;;;;;14.96;100.00;97970.19;104775;1253;60452;-61
2023/10/25 17:23:36;;;;;;;26.60;9.60;;;;;;;14.99;100.00;97969.91;104603;1253;72938;-61